Rechercher aéroport 
image banner adimage banner adimage banner ad
image banner ad

0CA5 - Hoffman Pvt

Situé à Santa Ysabel, United States

ICAO - 0CA5, IATA -

Données fournies par Airmate  

Information générale

Coordonnées: N33°8'35" W116°44'43"
Élévation : 3100 feet MSL.
Variation magnétique : 13° East
Voir autres Aéroports à California

Données opérationnelles

Special qualification required
Heure actuelle UTC:
Heure actuelle locale:
Météo à : KRNM - Ramona ( 20 km )
METAR: KRNM 262253Z VRB05KT 7SM OVC008 23/18 A2996 RMK AO2 SLP131 T02280183
Voir NOTAMs / SUP AIP / TFR affectant cet aéroport [VIEW]
Fréquences de communication: [VIEW]

Pistes:

Identifiant RWYQFULongueur (ft)Largeur (ft)SurfaceLDA (ft)
11140030ASPH
29140030ASPH

Coordonnées de l'aéroport

Adresse: Santa Ysabel United States

Vue satellite de 0CA5